Time;durP1;ratioP1;P1;durP2;ratioP2;P2;SDS_P1;SDS_P2;PMS_P1;PMS_P2;Temp;Humidity;BMP_temperature;BMP_pressure;BME280_temperature;BME280_humidity;BME280_pressure;Samples;Min_cycle;Max_cycle;Signal;HPM_P1;HPM_P2
2022/11/14 00:00:54;;;;;;;11.95;6.25;;;;;;;;;;5003836;28;20132;-73
2022/11/14 00:03:39;;;;;;;10.52;7.20;;;;;;;;;;5001756;28;20068;-74
2022/11/14 00:06:23;;;;;;;9.98;6.80;;;;;;;;;;5003518;28;20096;-75
2022/11/14 00:09:07;;;;;;;12.27;7.30;;;;;;;;;;5002264;28;20056;-71
2022/11/14 00:11:51;;;;;;;10.70;7.63;;;;;;;;;;5002978;28;20073;-74
2022/11/14 00:14:36;;;;;;;11.13;7.70;;;;;;;;;;5003576;28;20061;-71
2022/11/14 00:17:20;;;;;;;11.98;7.43;;;;;;;;;;5003520;28;20119;-70
2022/11/14 00:20:07;;;;;;;10.68;7.45;;;;;;;;;;5002228;28;20056;-70
2022/11/14 00:22:51;;;;;;;8.70;6.80;;;;;;;;;;5003287;28;20119;-72
2022/11/14 00:25:35;;;;;;;10.30;7.13;;;;;;;;;;5003764;28;20100;-74
2022/11/14 00:28:19;;;;;;;15.77;7.03;;;;;;;;;;5002728;28;20060;-71
2022/11/14 00:31:03;;;;;;;12.88;7.70;;;;;;;;;;5002553;28;20048;-73
2022/11/14 00:33:48;;;;;;;14.35;7.93;;;;;;;;;;5002854;28;20598;-70
2022/11/14 00:36:33;;;;;;;12.00;8.30;;;;;;;;;;5000959;28;20124;-70
2022/11/14 00:39:17;;;;;;;9.07;6.82;;;;;;;;;;5002654;28;20092;-71
2022/11/14 00:42:01;;;;;;;8.48;6.35;;;;;;;;;;5001470;28;20075;-76
2022/11/14 00:44:45;;;;;;;11.13;7.18;;;;;;;;;;5003334;28;20104;-72
2022/11/14 00:47:29;;;;;;;9.20;7.22;;;;;;;;;;5003016;28;20060;-76
2022/11/14 00:50:15;;;;;;;8.82;6.53;;;;;;;;;;5002543;28;20056;-71
2022/11/14 00:52:59;;;;;;;7.28;5.95;;;;;;;;;;5001571;28;20058;-71
2022/11/14 00:55:43;;;;;;;8.00;5.85;;;;;;;;;;5003158;28;20522;-69
2022/11/14 00:58:27;;;;;;;7.93;5.93;;;;;;;;;;4998867;28;20824;-72
2022/11/14 01:01:11;;;;;;;7.68;5.53;;;;;;;;;;5002754;28;20088;-70
2022/11/14 01:03:55;;;;;;;6.65;5.40;;;;;;;;;;5001062;28;20474;-71
2022/11/14 01:06:39;;;;;;;6.68;5.55;;;;;;;;;;5002855;28;20568;-71
2022/11/14 01:09:23;;;;;;;8.70;5.70;;;;;;;;;;5003808;28;20565;-70
2022/11/14 01:12:08;;;;;;;7.68;6.53;;;;;;;;;;5001671;28;20049;-70
2022/11/14 01:14:52;;;;;;;6.65;5.80;;;;;;;;;;5002196;28;20064;-70
2022/11/14 01:17:36;;;;;;;8.88;6.50;;;;;;;;;;5003748;28;20056;-70
2022/11/14 01:20:20;;;;;;;7.95;6.25;;;;;;;;;;5003005;28;20478;-71
2022/11/14 01:23:04;;;;;;;10.75;5.93;;;;;;;;;;5003789;28;20053;-70
2022/11/14 01:25:48;;;;;;;7.50;5.57;;;;;;;;;;5006888;28;20064;-70
2022/11/14 01:28:33;;;;;;;8.43;5.78;;;;;;;;;;5021367;28;20048;-70
2022/11/14 01:31:22;;;;;;;8.00;5.80;;;;;;;;;;5006724;28;20057;-70
2022/11/14 01:34:06;;;;;;;9.32;6.60;;;;;;;;;;5004601;28;20060;-70
2022/11/14 01:36:51;;;;;;;10.55;6.57;;;;;;;;;;5004142;28;20616;-70
2022/11/14 01:39:35;;;;;;;8.77;6.75;;;;;;;;;;5003698;28;20055;-70
2022/11/14 01:42:19;;;;;;;8.50;5.95;;;;;;;;;;5002493;28;20057;-70
2022/11/14 01:45:41;;;;;;;8.13;6.38;;;;;;;;;;5002829;28;21102;-70
2022/11/14 01:48:31;;;;;;;7.95;6.45;;;;;;;;;;4999476;28;20088;-70
2022/11/14 01:51:15;;;;;;;10.73;6.10;;;;;;;;;;5002351;28;20056;-70
2022/11/14 01:54:06;;;;;;;8.02;6.75;;;;;;;;;;5001962;28;20149;-70
2022/11/14 01:56:58;;;;;;;7.85;5.85;;;;;;;;;;5002037;28;20519;-71
2022/11/14 01:59:52;;;;;;;7.85;6.40;;;;;;;;;;5002320;28;20149;-70
2022/11/14 02:02:37;;;;;;;8.27;6.25;;;;;;;;;;4999600;28;20088;-71
2022/11/14 02:05:22;;;;;;;7.10;5.63;;;;;;;;;;5002585;28;20137;-70
2022/11/14 02:08:11;;;;;;;7.05;6.00;;;;;;;;;;5000351;28;20652;-70
2022/11/14 02:10:55;;;;;;;8.35;6.25;;;;;;;;;;5002199;28;20061;-73
2022/11/14 02:13:40;;;;;;;9.05;6.65;;;;;;;;;;5001602;28;20568;-73
2022/11/14 02:16:25;;;;;;;7.85;6.53;;;;;;;;;;4999427;28;20213;-72
2022/11/14 02:19:09;;;;;;;9.65;6.57;;;;;;;;;;5001589;28;20112;-72
2022/11/14 02:21:54;;;;;;;8.90;5.80;;;;;;;;;;5001294;28;20136;-72
2022/11/14 02:24:37;;;;;;;9.60;6.70;;;;;;;;;;5002148;28;20458;-70
2022/11/14 02:27:22;;;;;;;9.18;6.63;;;;;;;;;;5002209;28;20096;-70
2022/11/14 02:30:12;;;;;;;9.70;6.70;;;;;;;;;;5000789;28;20060;-71
2022/11/14 02:32:56;;;;;;;9.60;6.82;;;;;;;;;;5004356;28;20518;-70
2022/11/14 02:35:41;;;;;;;8.75;6.18;;;;;;;;;;5009134;28;20068;-70
2022/11/14 02:38:25;;;;;;;9.68;6.50;;;;;;;;;;5019897;28;20077;-70
2022/11/14 02:41:09;;;;;;;9.32;6.55;;;;;;;;;;5007164;28;20132;-70
2022/11/14 02:43:53;;;;;;;8.55;6.70;;;;;;;;;;5001712;28;20100;-71
2022/11/14 02:46:37;;;;;;;9.25;6.97;;;;;;;;;;5002546;28;20045;-70
2022/11/14 02:49:21;;;;;;;11.98;7.55;;;;;;;;;;5002041;28;20470;-70
2022/11/14 02:52:05;;;;;;;12.07;7.72;;;;;;;;;;4997659;28;20107;-71
2022/11/14 02:54:49;;;;;;;10.52;7.15;;;;;;;;;;5001518;28;20060;-71
2022/11/14 02:57:34;;;;;;;8.57;7.20;;;;;;;;;;5001132;28;20129;-71
2022/11/14 03:00:18;;;;;;;7.78;6.25;;;;;;;;;;5001294;28;20065;-71
2022/11/14 03:03:02;;;;;;;8.65;6.65;;;;;;;;;;4993840;28;20056;-71
2022/11/14 03:05:46;;;;;;;7.35;6.13;;;;;;;;;;5001146;28;20111;-70
2022/11/14 03:08:30;;;;;;;7.60;5.90;;;;;;;;;;4985614;28;20088;-71
2022/11/14 03:11:14;;;;;;;6.65;5.90;;;;;;;;;;5001285;28;20586;-71
2022/11/14 03:13:59;;;;;;;7.30;6.05;;;;;;;;;;5004595;28;20052;-70
2022/11/14 03:16:42;;;;;;;8.00;6.57;;;;;;;;;;5005171;28;20057;-70
2022/11/14 03:19:27;;;;;;;8.18;6.18;;;;;;;;;;5003242;28;20133;-72
2022/11/14 03:22:11;;;;;;;10.45;6.78;;;;;;;;;;5000563;28;20518;-72
2022/11/14 03:24:55;;;;;;;10.48;8.07;;;;;;;;;;5001516;28;20414;-71
2022/11/14 03:27:39;;;;;;;11.88;7.63;;;;;;;;;;5001979;28;20060;-71
2022/11/14 03:30:23;;;;;;;8.65;7.20;;;;;;;;;;5001293;28;20060;-71
2022/11/14 03:33:07;;;;;;;8.95;6.25;;;;;;;;;;5004120;28;20510;-71
2022/11/14 03:35:52;;;;;;;8.75;6.45;;;;;;;;;;5004647;28;20611;-73
2022/11/14 03:38:36;;;;;;;7.13;5.75;;;;;;;;;;5003886;28;20053;-71
2022/11/14 03:41:20;;;;;;;10.05;6.43;;;;;;;;;;5003712;28;20048;-71
2022/11/14 03:44:04;;;;;;;8.00;6.13;;;;;;;;;;5002904;28;20048;-71
2022/11/14 03:46:50;;;;;;;9.48;6.82;;;;;;;;;;5002345;28;20084;-71
2022/11/14 03:49:34;;;;;;;9.35;6.55;;;;;;;;;;5001169;28;20057;-70
2022/11/14 03:52:18;;;;;;;10.75;7.72;;;;;;;;;;5000040;28;20068;-71
2022/11/14 03:55:02;;;;;;;11.55;7.35;;;;;;;;;;5000175;28;20111;-71
2022/11/14 03:57:46;;;;;;;9.93;7.38;;;;;;;;;;4999092;28;20061;-72
2022/11/14 04:00:31;;;;;;;13.70;8.27;;;;;;;;;;4996132;28;20096;-71
2022/11/14 04:03:15;;;;;;;10.65;7.45;;;;;;;;;;4999269;28;20048;-71
2022/11/14 04:05:59;;;;;;;11.80;7.57;;;;;;;;;;4998612;28;20099;-71
2022/11/14 04:08:43;;;;;;;14.75;8.45;;;;;;;;;;4998919;28;20422;-71
2022/11/14 04:11:27;;;;;;;12.27;7.88;;;;;;;;;;4998890;28;20053;-71
2022/11/14 04:14:11;;;;;;;9.93;7.53;;;;;;;;;;4999756;28;20059;-71
2022/11/14 04:16:55;;;;;;;10.40;8.02;;;;;;;;;;5000241;28;20556;-71
2022/11/14 04:19:39;;;;;;;10.30;7.25;;;;;;;;;;4999692;28;20056;-71
2022/11/14 04:22:24;;;;;;;11.45;8.18;;;;;;;;;;4988825;28;20057;-71
2022/11/14 04:25:08;;;;;;;13.73;7.50;;;;;;;;;;5000383;28;20557;-71
2022/11/14 04:27:52;;;;;;;10.10;6.65;;;;;;;;;;4999559;28;20056;-71
2022/11/14 04:30:36;;;;;;;9.27;6.65;;;;;;;;;;4999145;28;20056;-71
2022/11/14 04:33:20;;;;;;;11.75;7.20;;;;;;;;;;5003356;28;20752;-71
2022/11/14 04:36:05;;;;;;;17.15;9.98;;;;;;;;;;5003645;28;20048;-71
2022/11/14 04:38:49;;;;;;;14.27;10.00;;;;;;;;;;5003640;28;20064;-71
2022/11/14 04:41:33;;;;;;;12.95;8.98;;;;;;;;;;5002004;28;20115;-71
2022/11/14 04:44:17;;;;;;;12.55;8.23;;;;;;;;;;5002946;28;20189;-72
2022/11/14 04:47:01;;;;;;;14.15;8.05;;;;;;;;;;5003324;28;20103;-71
2022/11/14 04:49:46;;;;;;;10.10;7.28;;;;;;;;;;5002264;28;20057;-71
2022/11/14 04:52:30;;;;;;;8.75;6.28;;;;;;;;;;4998803;28;20064;-72
2022/11/14 04:55:14;;;;;;;8.07;5.95;;;;;;;;;;5003456;28;20123;-71
2022/11/14 04:57:58;;;;;;;8.55;6.47;;;;;;;;;;5001760;28;20067;-72
2022/11/14 05:00:42;;;;;;;9.70;7.03;;;;;;;;;;5002800;28;21135;-71
2022/11/14 05:03:26;;;;;;;10.82;7.53;;;;;;;;;;5003234;28;20475;-71
2022/11/14 05:06:11;;;;;;;10.18;7.78;;;;;;;;;;5002867;28;20088;-71
2022/11/14 05:08:55;;;;;;;10.23;7.78;;;;;;;;;;5003250;28;20060;-71
2022/11/14 05:11:39;;;;;;;9.18;7.30;;;;;;;;;;5003014;28;20080;-71
2022/11/14 05:14:23;;;;;;;10.38;7.50;;;;;;;;;;5001394;28;20130;-71
2022/11/14 05:17:07;;;;;;;23.35;16.65;;;;;;;;;;5002636;28;20069;-71
2022/11/14 05:19:51;;;;;;;10.88;8.20;;;;;;;;;;4999625;28;20410;-71
2022/11/14 05:22:35;;;;;;;12.38;8.20;;;;;;;;;;4999247;28;20065;-71
2022/11/14 05:25:20;;;;;;;12.73;9.40;;;;;;;;;;4994529;28;20068;-71
2022/11/14 05:28:04;;;;;;;11.07;7.90;;;;;;;;;;5000596;28;20064;-71
2022/11/14 05:30:48;;;;;;;12.38;7.97;;;;;;;;;;5002935;28;20068;-71
2022/11/14 05:33:33;;;;;;;12.90;7.97;;;;;;;;;;5002952;28;20048;-71
2022/11/14 05:36:18;;;;;;;12.90;8.43;;;;;;;;;;5000830;28;20046;-70
2022/11/14 05:39:02;;;;;;;12.07;8.50;;;;;;;;;;5002214;28;20057;-71
2022/11/14 05:41:46;;;;;;;13.18;9.15;;;;;;;;;;5002444;28;20080;-70
2022/11/14 05:44:31;;;;;;;12.07;8.48;;;;;;;;;;4998563;28;20060;-71
2022/11/14 05:47:15;;;;;;;12.95;7.85;;;;;;;;;;5001605;28;20068;-71
2022/11/14 05:49:59;;;;;;;11.65;8.18;;;;;;;;;;5000878;28;20045;-71
2022/11/14 05:52:43;;;;;;;13.75;8.32;;;;;;;;;;5002560;28;20077;-71
2022/11/14 05:55:28;;;;;;;11.80;8.45;;;;;;;;;;4999751;28;20144;-70
2022/11/14 05:58:11;;;;;;;12.90;8.98;;;;;;;;;;5003903;28;20052;-71
2022/11/14 06:01:28;;;;;;;12.45;7.90;;;;;;;;;;5005398;28;20100;-72
2022/11/14 06:04:13;;;;;;;11.07;7.43;;;;;;;;;;4952812;28;20148;-71
2022/11/14 06:06:57;;;;;;;10.40;7.65;;;;;;;;;;4998956;28;20052;-70
2022/11/14 06:09:41;;;;;;;9.65;6.43;;;;;;;;;;5001346;28;20051;-70
2022/11/14 06:12:25;;;;;;;10.95;7.07;;;;;;;;;;4999619;28;20478;-72
2022/11/14 06:15:09;;;;;;;9.95;7.15;;;;;;;;;;5001162;28;20103;-71
2022/11/14 06:17:53;;;;;;;10.35;7.47;;;;;;;;;;5001471;28;20052;-73
2022/11/14 06:20:38;;;;;;;13.75;8.23;;;;;;;;;;5001448;28;20587;-72
2022/11/14 06:23:22;;;;;;;9.98;6.88;;;;;;;;;;5002275;28;20224;-71
2022/11/14 06:26:21;;;;;;;10.43;6.80;;;;;;;;;;5001474;28;20052;-71
2022/11/14 06:29:06;;;;;;;12.27;6.38;;;;;;;;;;4994164;28;20048;-74
2022/11/14 06:31:50;;;;;;;10.57;6.60;;;;;;;;;;5001307;28;20104;-73
2022/11/14 06:34:34;;;;;;;11.52;7.55;;;;;;;;;;4998913;28;20096;-73
2022/11/14 06:37:18;;;;;;;11.32;7.45;;;;;;;;;;5001148;28;20060;-75
2022/11/14 06:40:02;;;;;;;11.30;7.28;;;;;;;;;;5001012;28;20076;-73
2022/11/14 06:42:47;;;;;;;8.07;6.40;;;;;;;;;;5001378;28;20560;-73
2022/11/14 06:45:31;;;;;;;7.97;5.85;;;;;;;;;;5002006;28;20104;-73
2022/11/14 06:48:15;;;;;;;8.70;5.30;;;;;;;;;;5000063;28;20157;-72
2022/11/14 06:51:00;;;;;;;10.30;6.40;;;;;;;;;;5001651;28;20104;-72
2022/11/14 06:53:45;;;;;;;9.10;6.55;;;;;;;;;;4992161;28;20083;-75
2022/11/14 06:56:29;;;;;;;8.65;6.25;;;;;;;;;;4998141;28;20056;-74
2022/11/14 06:59:13;;;;;;;9.40;6.10;;;;;;;;;;5001350;28;20140;-73
2022/11/14 07:01:58;;;;;;;10.30;7.10;;;;;;;;;;5000771;28;20053;-74
2022/11/14 07:04:42;;;;;;;12.02;7.45;;;;;;;;;;5000511;28;20133;-75
2022/11/14 07:07:26;;;;;;;10.25;7.22;;;;;;;;;;5001792;28;20076;-73
2022/11/14 07:10:10;;;;;;;13.73;7.03;;;;;;;;;;5000642;28;20060;-74
2022/11/14 07:12:54;;;;;;;9.10;6.55;;;;;;;;;;4996805;28;20161;-76
2022/11/14 07:15:38;;;;;;;8.90;6.85;;;;;;;;;;4993394;28;20111;-76
2022/11/14 07:18:22;;;;;;;10.70;7.45;;;;;;;;;;4999546;28;20107;-73
2022/11/14 07:21:06;;;;;;;8.98;6.53;;;;;;;;;;5000899;28;20053;-72
2022/11/14 07:23:50;;;;;;;10.25;7.32;;;;;;;;;;5000113;28;20135;-72
2022/11/14 07:26:35;;;;;;;11.48;5.88;;;;;;;;;;4998566;28;20060;-72
2022/11/14 07:29:19;;;;;;;6.25;5.15;;;;;;;;;;5001219;28;20597;-75
2022/11/14 07:32:03;;;;;;;8.68;5.85;;;;;;;;;;4999273;28;20045;-73
2022/11/14 07:34:47;;;;;;;6.80;5.80;;;;;;;;;;5002435;28;20537;-75
2022/11/14 07:37:31;;;;;;;7.75;5.53;;;;;;;;;;5000363;28;20048;-74
2022/11/14 07:40:17;;;;;;;6.65;4.85;;;;;;;;;;5000813;28;20083;-74
2022/11/14 07:43:02;;;;;;;7.07;4.88;;;;;;;;;;5000405;28;20062;-71
2022/11/14 07:45:46;;;;;;;5.72;4.40;;;;;;;;;;5001120;28;20418;-74
2022/11/14 07:48:30;;;;;;;4.88;3.72;;;;;;;;;;4997661;28;20057;-72
2022/11/14 07:51:17;;;;;;;4.15;3.75;;;;;;;;;;5000829;28;20111;-73
2022/11/14 07:54:01;;;;;;;4.65;3.55;;;;;;;;;;5000713;28;20053;-74
2022/11/14 07:56:45;;;;;;;4.55;3.85;;;;;;;;;;5001893;28;20052;-73
2022/11/14 07:59:29;;;;;;;3.97;3.58;;;;;;;;;;5000575;28;20161;-73
2022/11/14 08:02:14;;;;;;;6.20;3.72;;;;;;;;;;5000683;28;20104;-73
2022/11/14 08:04:58;;;;;;;4.28;3.60;;;;;;;;;;5002446;28;21076;-73
2022/11/14 08:07:43;;;;;;;4.25;3.70;;;;;;;;;;5005112;28;20601;-73
2022/11/14 08:10:27;;;;;;;6.95;4.38;;;;;;;;;;4996210;28;20104;-74
2022/11/14 08:13:11;;;;;;;9.68;3.78;;;;;;;;;;5007607;28;20411;-73
2022/11/14 08:15:55;;;;;;;6.22;4.07;;;;;;;;;;5007096;28;20053;-73
2022/11/14 08:18:39;;;;;;;5.05;3.72;;;;;;;;;;5008613;28;20761;-73
2022/11/14 08:21:23;;;;;;;4.63;3.53;;;;;;;;;;5003252;28;20068;-72
2022/11/14 08:24:08;;;;;;;4.40;3.95;;;;;;;;;;5003828;28;20107;-71
2022/11/14 08:26:52;;;;;;;5.13;4.40;;;;;;;;;;5004513;28;20129;-73
2022/11/14 08:29:36;;;;;;;4.00;3.60;;;;;;;;;;5004519;28;20072;-72
2022/11/14 08:32:20;;;;;;;3.65;3.20;;;;;;;;;;5002778;28;20060;-73
2022/11/14 08:35:04;;;;;;;4.65;4.25;;;;;;;;;;5003814;28;20582;-73
2022/11/14 08:37:48;;;;;;;4.47;3.78;;;;;;;;;;5004153;28;20135;-73
2022/11/14 08:40:33;;;;;;;5.45;4.05;;;;;;;;;;4987300;28;20100;-72
2022/11/14 08:43:17;;;;;;;4.35;3.72;;;;;;;;;;4998955;28;20083;-73
2022/11/14 08:46:03;;;;;;;6.15;4.13;;;;;;;;;;5003639;28;20082;-73
2022/11/14 08:48:47;;;;;;;6.88;4.05;;;;;;;;;;5004277;28;20057;-73
2022/11/14 08:51:32;;;;;;;7.50;4.35;;;;;;;;;;5004355;28;20060;-73
2022/11/14 08:54:16;;;;;;;5.60;3.58;;;;;;;;;;5003326;28;20064;-73
2022/11/14 08:57:00;;;;;;;9.40;4.03;;;;;;;;;;5004314;28;20107;-73
2022/11/14 08:59:44;;;;;;;4.88;3.95;;;;;;;;;;5004088;28;20153;-71
2022/11/14 09:02:28;;;;;;;5.57;3.88;;;;;;;;;;4987100;28;21140;-73
2022/11/14 09:05:12;;;;;;;5.38;3.85;;;;;;;;;;5002927;28;20150;-73
2022/11/14 09:07:57;;;;;;;5.10;4.43;;;;;;;;;;5001726;28;20081;-73
2022/11/14 09:10:41;;;;;;;5.00;4.30;;;;;;;;;;5002594;28;20161;-73
2022/11/14 09:13:26;;;;;;;5.15;4.22;;;;;;;;;;5003072;28;20064;-73
2022/11/14 09:16:10;;;;;;;11.45;4.38;;;;;;;;;;5000896;28;20146;-74
2022/11/14 09:18:54;;;;;;;5.10;4.20;;;;;;;;;;5002240;28;20513;-73
2022/11/14 09:21:39;;;;;;;4.65;3.80;;;;;;;;;;5003129;28;20049;-73
2022/11/14 09:24:23;;;;;;;6.72;4.28;;;;;;;;;;5002946;28;20061;-73
2022/11/14 09:27:07;;;;;;;4.35;3.95;;;;;;;;;;5002625;28;20103;-73
2022/11/14 09:29:51;;;;;;;5.40;4.35;;;;;;;;;;5002912;28;20077;-74
2022/11/14 09:32:36;;;;;;;4.32;3.75;;;;;;;;;;5000734;28;20125;-73
2022/11/14 09:35:20;;;;;;;4.75;3.83;;;;;;;;;;5002780;28;20801;-73
2022/11/14 09:38:06;;;;;;;6.85;3.97;;;;;;;;;;5001334;28;20129;-74
2022/11/14 09:41:23;;;;;;;4.82;3.97;;;;;;;;;;5003230;28;20442;-72
2022/11/14 09:44:06;;;;;;;6.22;4.50;;;;;;;;;;5000291;28;20096;-73
2022/11/14 09:47:20;;;;;;;9.07;5.85;;;;;;;;;;5002894;28;20064;-72
2022/11/14 09:50:14;;;;;;;7.10;5.22;;;;;;;;;;5004758;28;20473;-72
2022/11/14 09:53:04;;;;;;;6.53;5.35;;;;;;;;;;5008470;28;20052;-73
2022/11/14 09:55:48;;;;;;;5.82;4.75;;;;;;;;;;5008001;28;20099;-73
2022/11/14 09:58:32;;;;;;;6.15;4.45;;;;;;;;;;5005192;28;20053;-73
2022/11/14 10:01:23;;;;;;;4.90;4.25;;;;;;;;;;5007023;28;20095;-73
2022/11/14 10:04:20;;;;;;;4.93;3.92;;;;;;;;;;5006499;28;20057;-73
2022/11/14 10:07:14;;;;;;;4.93;4.00;;;;;;;;;;5008218;28;20112;-74
2022/11/14 10:10:29;;;;;;;7.95;3.35;;;;;;;;;;5008568;28;20060;-73
2022/11/14 10:14:06;;;;;;;6.85;3.42;;;;;;;;;;5009456;28;20052;-72
2022/11/14 10:17:16;;;;;;;4.15;3.60;;;;;;;;;;4978841;28;20413;-72
2022/11/14 10:20:22;;;;;;;5.07;3.40;;;;;;;;;;5001986;28;20601;-72
2022/11/14 10:23:36;;;;;;;3.95;3.55;;;;;;;;;;5001147;28;20048;-72
2022/11/14 10:26:30;;;;;;;3.78;3.40;;;;;;;;;;5014351;28;20065;-72
2022/11/14 10:29:28;;;;;;;3.47;3.17;;;;;;;;;;5001866;28;20129;-71
2022/11/14 10:32:37;;;;;;;3.13;2.85;;;;;;;;;;5000274;28;20063;-72
2022/11/14 10:35:33;;;;;;;3.00;2.72;;;;;;;;;;5002157;28;20477;-72
2022/11/14 10:38:42;;;;;;;6.68;2.88;;;;;;;;;;5001330;28;20585;-72
2022/11/14 10:41:28;;;;;;;3.47;2.95;;;;;;;;;;5001876;28;20049;-73
2022/11/14 10:44:17;;;;;;;5.25;3.10;;;;;;;;;;5000563;28;20057;-73
2022/11/14 10:47:05;;;;;;;3.45;3.15;;;;;;;;;;5001519;28;20414;-73
2022/11/14 10:49:54;;;;;;;3.10;2.90;;;;;;;;;;5002670;28;20061;-73
2022/11/14 10:52:41;;;;;;;3.30;3.00;;;;;;;;;;4985272;28;20073;-73
2022/11/14 10:55:26;;;;;;;5.53;2.70;;;;;;;;;;5000094;28;20180;-72
2022/11/14 10:58:12;;;;;;;3.92;3.20;;;;;;;;;;5000408;28;20068;-72
2022/11/14 11:01:17;;;;;;;3.35;3.05;;;;;;;;;;5001680;28;20059;-73
2022/11/14 11:04:11;;;;;;;3.67;2.80;;;;;;;;;;5000810;28;20145;-73
2022/11/14 11:07:05;;;;;;;3.10;2.80;;;;;;;;;;5000445;28;20552;-72
2022/11/14 11:13:01;;;;;;;4.90;2.60;;;;;;;;;;4986865;28;20083;-72
2022/11/14 11:15:45;;;;;;;5.93;3.03;;;;;;;;;;5001548;28;21078;-73
2022/11/14 11:18:34;;;;;;;3.20;2.90;;;;;;;;;;4997732;28;20067;-71
2022/11/14 11:21:21;;;;;;;3.78;3.05;;;;;;;;;;5001005;28;20060;-71
2022/11/14 11:24:07;;;;;;;3.10;2.78;;;;;;;;;;4999756;28;20048;-72
2022/11/14 11:27:13;;;;;;;5.85;2.92;;;;;;;;;;5001370;28;20135;-72
2022/11/14 11:30:07;;;;;;;2.90;2.65;;;;;;;;;;5000430;28;20099;-72
2022/11/14 11:32:52;;;;;;;2.80;2.60;;;;;;;;;;4990644;28;20517;-72
2022/11/14 11:35:36;;;;;;;4.47;2.90;;;;;;;;;;5001148;28;20103;-73
2022/11/14 11:38:23;;;;;;;3.58;3.28;;;;;;;;;;4999203;28;20112;-71
2022/11/14 11:41:30;;;;;;;3.40;3.10;;;;;;;;;;5000270;28;20049;-72
2022/11/14 11:44:16;;;;;;;3.47;2.85;;;;;;;;;;5000372;28;20052;-74
2022/11/14 11:47:04;;;;;;;3.80;3.33;;;;;;;;;;5001881;28;20181;-73
2022/11/14 11:49:50;;;;;;;3.90;3.30;;;;;;;;;;5000918;28;20056;-73
2022/11/14 11:52:43;;;;;;;3.88;2.88;;;;;;;;;;4999194;28;20056;-72
2022/11/14 11:55:35;;;;;;;2.92;2.55;;;;;;;;;;5001689;28;20061;-73
2022/11/14 11:58:24;;;;;;;2.83;2.53;;;;;;;;;;5001341;28;20411;-72
2022/11/14 12:01:12;;;;;;;2.47;2.20;;;;;;;;;;5000590;28;20056;-73
2022/11/14 12:03:57;;;;;;;2.08;1.90;;;;;;;;;;4999441;28;20100;-73
2022/11/14 12:06:49;;;;;;;3.13;2.38;;;;;;;;;;4994898;28;20116;-72
2022/11/14 12:09:39;;;;;;;3.33;2.28;;;;;;;;;;5003695;28;20125;-73
2022/11/14 12:12:23;;;;;;;2.83;2.30;;;;;;;;;;5004797;28;20080;-73
2022/11/14 12:15:17;;;;;;;3.80;2.58;;;;;;;;;;5004130;28;20466;-73
2022/11/14 12:18:27;;;;;;;3.00;2.70;;;;;;;;;;5004093;28;20100;-73
2022/11/14 12:21:23;;;;;;;3.67;2.80;;;;;;;;;;5004216;28;20103;-72
2022/11/14 12:24:22;;;;;;;2.80;2.60;;;;;;;;;;4992180;28;20056;-73
2022/11/14 12:27:17;;;;;;;3.55;3.08;;;;;;;;;;5000156;28;20147;-72
2022/11/14 12:30:10;;;;;;;4.18;3.10;;;;;;;;;;4999877;28;20052;-73
2022/11/14 12:33:10;;;;;;;4.35;3.70;;;;;;;;;;4999962;28;20076;-73
2022/11/14 12:36:00;;;;;;;4.57;3.90;;;;;;;;;;5000402;28;20914;-73
2022/11/14 12:38:51;;;;;;;6.40;3.88;;;;;;;;;;5001499;28;20088;-72
2022/11/14 12:41:37;;;;;;;4.75;3.63;;;;;;;;;;4999487;28;20119;-71
2022/11/14 12:44:28;;;;;;;4.75;3.70;;;;;;;;;;4998038;28;20172;-72
2022/11/14 12:47:15;;;;;;;4.15;3.38;;;;;;;;;;4990672;28;20478;-72
2022/11/14 12:50:01;;;;;;;4.88;3.50;;;;;;;;;;4999381;28;20173;-71
2022/11/14 12:52:52;;;;;;;4.97;3.60;;;;;;;;;;5003293;28;20064;-72
2022/11/14 12:55:39;;;;;;;5.13;4.38;;;;;;;;;;5010495;28;20873;-72
2022/11/14 12:58:52;;;;;;;5.65;3.80;;;;;;;;;;5005628;28;20073;-71
2022/11/14 13:01:51;;;;;;;4.25;3.85;;;;;;;;;;5005290;28;20064;-74
2022/11/14 13:04:42;;;;;;;8.00;3.90;;;;;;;;;;5002946;28;20108;-71
2022/11/14 13:07:59;;;;;;;4.43;3.97;;;;;;;;;;5005000;28;20560;-71
2022/11/14 13:10:43;;;;;;;5.43;3.70;;;;;;;;;;5017657;28;20505;-71
2022/11/14 13:22:41;;;;;;;3.33;2.90;;;;;;;;;;5003878;28;20056;-71
2022/11/14 13:25:26;;;;;;;3.40;3.03;;;;;;;;;;5013555;28;20125;-71
2022/11/14 13:28:36;;;;;;;3.50;3.20;;;;;;;;;;5007258;28;20100;-71
2022/11/14 13:31:42;;;;;;;3.30;3.00;;;;;;;;;;5006360;28;20799;-71
2022/11/14 13:35:03;;;;;;;3.83;3.30;;;;;;;;;;5004186;28;20486;-71
2022/11/14 13:38:13;;;;;;;3.10;2.80;;;;;;;;;;4986535;28;20092;-71
2022/11/14 13:41:20;;;;;;;3.60;3.05;;;;;;;;;;5000981;28;20497;-71
2022/11/14 13:44:53;;;;;;;8.02;3.55;;;;;;;;;;5002487;28;20984;-71
2022/11/14 13:47:58;;;;;;;3.90;3.15;;;;;;;;;;5003312;28;20057;-71
2022/11/14 13:50:48;;;;;;;6.00;3.42;;;;;;;;;;4981866;28;20053;-71
2022/11/14 13:53:33;;;;;;;4.68;3.88;;;;;;;;;;5004772;28;20095;-71
2022/11/14 13:56:41;;;;;;;3.95;3.60;;;;;;;;;;5001640;28;20092;-71
2022/11/14 13:59:53;;;;;;;4.93;4.10;;;;;;;;;;5001403;28;20518;-72
2022/11/14 14:03:03;;;;;;;8.00;4.00;;;;;;;;;;4994452;28;20080;-71
2022/11/14 14:06:10;;;;;;;3.60;2.90;;;;;;;;;;4983282;28;20139;-72
2022/11/14 14:09:16;;;;;;;5.05;3.67;;;;;;;;;;5000806;28;20100;-72
2022/11/14 14:12:22;;;;;;;4.05;3.50;;;;;;;;;;5002812;28;20056;-72
2022/11/14 14:15:17;;;;;;;5.97;4.18;;;;;;;;;;5001781;28;20597;-71
2022/11/14 14:18:08;;;;;;;5.10;4.05;;;;;;;;;;5002557;28;20502;-72
2022/11/14 14:21:01;;;;;;;4.72;3.90;;;;;;;;;;4997030;28;20092;-71
2022/11/14 14:24:16;;;;;;;5.78;4.40;;;;;;;;;;5004944;28;20612;-72
2022/11/14 14:27:18;;;;;;;6.43;4.10;;;;;;;;;;5002089;28;20056;-70
2022/11/14 14:30:09;;;;;;;5.80;4.22;;;;;;;;;;5010494;28;20395;-71
2022/11/14 14:33:05;;;;;;;10.48;4.57;;;;;;;;;;5001523;28;20060;-71
2022/11/14 14:35:52;;;;;;;5.15;4.47;;;;;;;;;;5001208;28;20523;-70
2022/11/14 14:38:36;;;;;;;5.53;4.50;;;;;;;;;;4987577;28;20084;-71
2022/11/14 14:41:21;;;;;;;5.78;5.00;;;;;;;;;;5001909;28;20064;-70
2022/11/14 14:44:15;;;;;;;6.43;4.90;;;;;;;;;;5001389;28;20045;-70
2022/11/14 14:47:23;;;;;;;5.82;4.78;;;;;;;;;;5001434;28;20065;-71
2022/11/14 14:50:16;;;;;;;7.57;5.07;;;;;;;;;;5001535;28;20061;-70
2022/11/14 14:53:03;;;;;;;7.80;5.00;;;;;;;;;;5002455;28;20065;-69
2022/11/14 14:56:04;;;;;;;7.78;6.00;;;;;;;;;;5001978;28;20049;-70
2022/11/14 14:58:48;;;;;;;9.13;6.10;;;;;;;;;;4999157;28;20771;-71
2022/11/14 15:01:34;;;;;;;9.48;6.13;;;;;;;;;;5003407;28;20653;-70
2022/11/14 15:04:20;;;;;;;9.70;6.45;;;;;;;;;;5003092;28;20057;-69
2022/11/14 15:07:03;;;;;;;8.90;6.65;;;;;;;;;;5003317;28;20445;-70
2022/11/14 15:09:59;;;;;;;10.38;7.78;;;;;;;;;;5002867;28;20096;-70
2022/11/14 15:12:43;;;;;;;11.02;7.82;;;;;;;;;;4986153;28;20426;-70
2022/11/14 15:15:29;;;;;;;13.30;8.68;;;;;;;;;;5003124;28;20129;-70
2022/11/14 15:18:22;;;;;;;11.02;7.63;;;;;;;;;;5003986;28;20049;-70
2022/11/14 15:21:14;;;;;;;10.70;7.10;;;;;;;;;;5004288;28;20080;-70
2022/11/14 15:24:13;;;;;;;9.25;6.78;;;;;;;;;;5003776;28;20107;-70
2022/11/14 15:27:01;;;;;;;10.80;6.32;;;;;;;;;;5004772;28;20065;-70
2022/11/14 15:29:52;;;;;;;8.70;6.43;;;;;;;;;;5004466;28;20060;-70
2022/11/14 15:32:36;;;;;;;9.77;7.45;;;;;;;;;;5001783;28;20055;-70
2022/11/14 15:35:23;;;;;;;9.82;7.43;;;;;;;;;;5003993;28;20060;-70
2022/11/14 15:38:10;;;;;;;10.07;6.78;;;;;;;;;;5002731;28;20056;-70
2022/11/14 15:41:23;;;;;;;9.20;5.80;;;;;;;;;;5002152;28;20076;-70
2022/11/14 15:44:29;;;;;;;8.27;6.45;;;;;;;;;;4996593;28;20057;-70
2022/11/14 15:47:20;;;;;;;9.35;6.43;;;;;;;;;;5003246;28;20080;-69
2022/11/14 15:50:10;;;;;;;8.57;6.25;;;;;;;;;;5002467;28;20466;-70
2022/11/14 15:52:59;;;;;;;10.95;6.38;;;;;;;;;;5002508;28;20065;-70
2022/11/14 15:55:43;;;;;;;11.35;7.15;;;;;;;;;;5002477;28;20065;-70
2022/11/14 15:58:28;;;;;;;13.63;6.78;;;;;;;;;;4999917;28;20169;-70
2022/11/14 16:01:20;;;;;;;9.13;6.90;;;;;;;;;;5003429;28;20060;-70
2022/11/14 16:04:06;;;;;;;12.27;7.43;;;;;;;;;;4991346;28;20100;-69
2022/11/14 16:06:50;;;;;;;9.73;7.10;;;;;;;;;;5000831;28;20215;-69
2022/11/14 16:09:35;;;;;;;9.25;6.93;;;;;;;;;;4999821;28;20100;-69
2022/11/14 16:12:19;;;;;;;11.23;7.10;;;;;;;;;;5000180;28;20124;-69
2022/11/14 16:15:03;;;;;;;9.93;6.78;;;;;;;;;;4998164;28;20764;-69
2022/11/14 16:17:48;;;;;;;11.85;7.10;;;;;;;;;;5000270;28;20102;-70
2022/11/14 16:20:36;;;;;;;13.18;7.15;;;;;;;;;;4996195;28;20080;-69
2022/11/14 16:23:20;;;;;;;11.65;7.13;;;;;;;;;;5000594;28;20053;-69
2022/11/14 16:26:04;;;;;;;11.68;6.80;;;;;;;;;;4992766;28;20108;-69
2022/11/14 16:28:49;;;;;;;11.90;7.28;;;;;;;;;;5003779;28;20048;-69
2022/11/14 16:31:33;;;;;;;11.30;7.47;;;;;;;;;;5004533;28;20438;-69
2022/11/14 16:34:21;;;;;;;12.10;7.80;;;;;;;;;;5003391;28;20108;-69
2022/11/14 16:37:10;;;;;;;10.82;8.07;;;;;;;;;;5003202;28;20108;-69
2022/11/14 16:39:54;;;;;;;11.30;7.95;;;;;;;;;;5004458;28;20125;-69
2022/11/14 16:42:48;;;;;;;20.23;8.40;;;;;;;;;;5001673;28;20057;-70
2022/11/14 16:45:32;;;;;;;12.75;8.80;;;;;;;;;;5003822;28;20052;-68
2022/11/14 16:48:17;;;;;;;10.88;7.90;;;;;;;;;;5004038;28;20109;-69
2022/11/14 16:51:02;;;;;;;10.35;7.95;;;;;;;;;;5003443;28;20134;-69
2022/11/14 16:53:46;;;;;;;12.18;7.60;;;;;;;;;;5003966;28;20057;-69
2022/11/14 16:56:30;;;;;;;11.45;8.23;;;;;;;;;;5002012;28;20056;-69